Time;durP1;ratioP1;P1;durP2;ratioP2;P2;SDS_P1;SDS_P2;PMS_P1;PMS_P2;Temp;Humidity;BMP_temperature;BMP_pressure;BME280_temperature;BME280_humidity;BME280_pressure;Samples;Min_cycle;Max_cycle;Signal;HPM_P1;HPM_P2
2021/04/24 00:01:16;;;;;;;8.80;6.97;;;6.60;92.90;;;;;;4954401;29;20509;-95
2021/04/24 00:03:45;;;;;;;10.80;7.10;;;6.60;93.00;;;;;;4939634;29;20437;-92
2021/04/24 00:06:13;;;;;;;11.17;7.00;;;6.50;93.00;;;;;;4958293;28;20513;-93
2021/04/24 00:08:40;;;;;;;12.20;6.67;;;6.50;93.10;;;;;;4942183;29;20462;-93
2021/04/24 00:11:08;;;;;;;8.37;6.53;;;6.50;93.20;;;;;;4939041;29;20434;-94
2021/04/24 00:13:36;;;;;;;10.20;6.70;;;6.50;93.20;;;;;;4937068;29;20530;-95
2021/04/24 00:16:04;;;;;;;8.73;7.00;;;6.50;93.30;;;;;;4953220;29;20462;-95
2021/04/24 00:18:31;;;;;;;8.33;6.67;;;6.50;93.30;;;;;;4937066;29;20481;-95
2021/04/24 00:21:00;;;;;;;8.53;6.40;;;6.50;93.40;;;;;;4953459;29;20464;-95
2021/04/24 00:23:28;;;;;;;8.97;7.20;;;6.40;93.40;;;;;;4952847;29;20446;-95
2021/04/24 00:25:55;;;;;;;10.10;7.00;;;6.40;93.50;;;;;;4936305;29;20490;-95
2021/04/24 00:28:23;;;;;;;11.43;7.23;;;6.50;93.60;;;;;;4951480;29;20522;-95
2021/04/24 00:30:51;;;;;;;8.83;6.63;;;6.50;93.60;;;;;;4935457;29;20450;-94
2021/04/24 00:33:18;;;;;;;11.70;7.27;;;6.40;93.70;;;;;;4935001;29;20450;-94
2021/04/24 00:35:46;;;;;;;11.17;7.00;;;6.40;93.70;;;;;;4951370;29;20464;-95
2021/04/24 00:38:14;;;;;;;10.03;6.47;;;6.40;93.80;;;;;;4951360;29;20479;-95
2021/04/24 00:40:42;;;;;;;9.70;6.30;;;6.40;93.90;;;;;;4936513;29;20482;-94
2021/04/24 00:43:09;;;;;;;9.97;7.20;;;6.40;93.90;;;;;;4952465;29;20458;-95
2021/04/24 00:45:37;;;;;;;10.37;7.53;;;6.40;93.90;;;;;;4952359;29;20489;-95
2021/04/24 00:48:05;;;;;;;9.40;6.90;;;6.40;94.00;;;;;;4966853;23;20583;-80
2021/04/24 00:50:34;;;;;;;9.37;7.30;;;6.30;94.00;;;;;;4952271;28;20912;-81
2021/04/24 00:53:02;;;;;;;10.47;6.83;;;6.30;94.30;;;;;;4946628;29;20457;-81
2021/04/24 00:55:31;;;;;;;10.90;6.70;;;6.30;94.10;;;;;;4946058;29;20478;-80
2021/04/24 00:57:59;;;;;;;9.77;7.17;;;6.30;94.20;;;;;;4947521;29;20458;-80
2021/04/24 01:00:26;;;;;;;10.40;7.77;;;6.30;94.20;;;;;;4947475;29;20481;-80
2021/04/24 01:02:55;;;;;;;12.30;7.57;;;6.20;94.20;;;;;;4941307;29;20490;-80
2021/04/24 01:05:24;;;;;;;10.90;7.50;;;6.20;94.20;;;;;;4935297;29;20459;-79
2021/04/24 01:07:51;;;;;;;9.33;6.63;;;6.20;94.30;;;;;;4927085;29;20487;-80
2021/04/24 01:10:20;;;;;;;10.70;7.13;;;6.20;94.30;;;;;;4927793;29;20529;-80
2021/04/24 01:12:48;;;;;;;10.30;8.00;;;6.10;94.30;;;;;;4929632;29;20412;-80
2021/04/24 01:15:20;;;;;;;9.13;7.30;;;6.10;94.40;;;;;;4927458;29;20217;-80
2021/04/24 01:17:48;;;;;;;11.60;8.03;;;6.10;94.50;;;;;;4927592;29;20920;-80
2021/04/24 01:20:16;;;;;;;9.50;8.20;;;6.10;94.60;;;;;;4927214;29;20887;-80
2021/04/24 01:22:47;;;;;;;9.40;7.50;;;6.00;94.50;;;;;;4929212;29;20509;-80
2021/04/24 01:25:16;;;;;;;9.87;7.20;;;6.00;94.60;;;;;;4927651;29;20450;-80
2021/04/24 01:27:48;;;;;;;12.40;7.93;;;6.00;94.70;;;;;;4935682;29;20461;-79
2021/04/24 01:30:19;;;;;;;12.80;8.30;;;6.00;94.80;;;;;;4947784;29;20508;-79
2021/04/24 01:32:46;;;;;;;10.77;7.80;;;5.90;94.80;;;;;;4931344;29;20946;-79
2021/04/24 01:35:18;;;;;;;13.90;8.30;;;5.90;94.80;;;;;;4928139;29;20446;-79
2021/04/24 01:37:46;;;;;;;14.80;7.73;;;5.80;94.80;;;;;;4927213;29;20450;-79
2021/04/24 01:40:16;;;;;;;10.57;8.03;;;5.80;94.90;;;;;;4928339;29;20498;-79
2021/04/24 01:42:44;;;;;;;11.10;7.97;;;5.80;95.00;;;;;;4929247;29;20451;-79
2021/04/24 01:45:16;;;;;;;10.33;7.17;;;5.80;95.00;;;;;;4930583;29;20437;-79
2021/04/24 01:47:46;;;;;;;9.53;7.27;;;5.80;95.10;;;;;;4938707;29;20470;-79
2021/04/24 01:50:16;;;;;;;12.30;7.27;;;5.80;95.10;;;;;;4929480;29;20485;-79
2021/04/24 01:52:46;;;;;;;11.53;7.40;;;5.70;95.10;;;;;;4942040;29;20511;-79
2021/04/24 01:55:16;;;;;;;12.63;7.67;;;5.70;95.20;;;;;;4949654;29;20457;-79
2021/04/24 01:57:45;;;;;;;12.00;7.83;;;5.70;95.20;;;;;;4940195;29;20777;-81
2021/04/24 02:00:23;;;;;;;10.10;7.13;;;5.70;95.30;;;;;;4931859;29;20470;-80
2021/04/24 02:02:57;;;;;;;8.83;6.97;;;5.60;95.30;;;;;;4947744;29;20455;-80
2021/04/24 02:05:28;;;;;;;10.90;6.73;;;5.60;95.30;;;;;;4947603;29;20444;-79
2021/04/24 02:07:58;;;;;;;14.30;7.47;;;5.60;95.30;;;;;;4944996;29;20554;-79
2021/04/24 02:10:26;;;;;;;11.60;7.60;;;5.60;95.30;;;;;;4947522;29;20484;-79
2021/04/24 02:12:55;;;;;;;11.83;8.73;;;5.60;95.40;;;;;;4947690;29;20441;-79
2021/04/24 02:15:23;;;;;;;7.90;6.73;;;5.50;95.40;;;;;;4946961;29;20942;-79
2021/04/24 02:17:51;;;;;;;13.00;7.40;;;5.50;95.40;;;;;;4944215;29;20456;-79
2021/04/24 02:20:19;;;;;;;11.03;7.90;;;5.50;95.40;;;;;;4950668;29;20461;-79
2021/04/24 02:22:47;;;;;;;12.10;9.10;;;5.50;95.50;;;;;;4948084;29;20457;-79
2021/04/24 02:25:16;;;;;;;13.13;7.77;;;5.40;95.50;;;;;;4951368;29;20955;-80
2021/04/24 02:27:44;;;;;;;12.80;7.90;;;5.40;95.50;;;;;;4950062;29;20456;-80
2021/04/24 02:30:15;;;;;;;10.20;7.77;;;5.40;95.60;;;;;;4949417;29;20481;-80
2021/04/24 02:32:43;;;;;;;8.73;6.70;;;5.40;95.60;;;;;;4942177;29;20442;-80
2021/04/24 02:35:14;;;;;;;13.63;7.47;;;5.40;95.70;;;;;;4931558;29;20446;-80
2021/04/24 02:37:41;;;;;;;13.27;7.27;;;5.30;95.70;;;;;;4946674;29;20468;-80
2021/04/24 02:40:13;;;;;;;9.60;7.63;;;5.30;95.70;;;;;;4948680;29;20477;-80
2021/04/24 02:42:41;;;;;;;11.60;7.80;;;5.30;95.80;;;;;;4949287;29;20454;-80
2021/04/24 02:45:11;;;;;;;9.93;6.70;;;5.20;95.80;;;;;;4949089;29;20465;-80
2021/04/24 02:47:38;;;;;;;11.87;8.50;;;5.20;95.80;;;;;;4949215;29;20920;-79
2021/04/24 02:50:09;;;;;;;11.73;7.57;;;5.20;95.90;;;;;;4934460;29;20478;-79
2021/04/24 02:52:36;;;;;;;12.33;7.87;;;5.20;96.00;;;;;;4931863;29;20844;-79
2021/04/24 02:55:05;;;;;;;10.40;7.10;;;5.20;96.00;;;;;;4930875;29;20466;-79
2021/04/24 02:57:33;;;;;;;11.37;6.80;;;5.20;96.00;;;;;;4931206;29;20829;-80
2021/04/24 03:00:01;;;;;;;11.20;6.47;;;5.10;96.00;;;;;;4931072;29;20473;-79
2021/04/24 03:02:28;;;;;;;10.13;7.20;;;5.10;96.10;;;;;;4935041;29;20481;-79
2021/04/24 03:04:55;;;;;;;13.07;8.20;;;5.10;96.20;;;;;;4952242;29;20827;-79
2021/04/24 03:07:22;;;;;;;10.07;6.63;;;5.10;96.20;;;;;;4952481;29;20479;-80
2021/04/24 03:09:50;;;;;;;13.97;7.90;;;5.10;96.20;;;;;;4950142;29;20990;-79
2021/04/24 03:12:17;;;;;;;11.50;8.25;;;5.20;96.30;;;;;;4951518;29;20441;-80
2021/04/24 03:14:44;;;;;;;13.30;7.50;;;5.10;96.90;;;;;;4949961;29;20205;-80
2021/04/24 03:17:12;;;;;;;10.00;7.10;;;5.10;96.70;;;;;;4948348;29;20458;-78
2021/04/24 03:19:39;;;;;;;10.07;6.97;;;5.10;96.70;;;;;;4929974;29;20482;-79
2021/04/24 03:22:06;;;;;;;12.10;6.97;;;5.10;96.70;;;;;;4946478;29;20442;-79
2021/04/24 03:24:34;;;;;;;10.73;7.73;;;5.10;96.80;;;;;;4950801;29;20441;-79
2021/04/24 03:27:01;;;;;;;10.10;7.33;;;5.10;97.00;;;;;;4950565;29;20516;-79
2021/04/24 03:29:28;;;;;;;9.10;7.03;;;5.00;96.80;;;;;;4949231;29;20520;-80
2021/04/24 03:31:55;;;;;;;13.33;7.33;;;5.00;96.90;;;;;;4951183;29;20449;-79
2021/04/24 03:34:24;;;;;;;15.37;7.60;;;5.00;96.90;;;;;;4950331;29;20461;-79
2021/04/24 03:36:52;;;;;;;13.50;7.80;;;5.00;97.00;;;;;;4944560;29;20466;-79
2021/04/24 03:39:19;;;;;;;13.87;8.37;;;5.00;97.10;;;;;;4934220;29;20478;-80
2021/04/24 03:41:46;;;;;;;11.83;6.60;;;5.10;97.20;;;;;;4930606;29;20860;-80
2021/04/24 03:44:13;;;;;;;15.47;7.07;;;5.10;97.20;;;;;;4931911;29;20521;-79
2021/04/24 03:46:40;;;;;;;8.33;6.87;;;5.10;97.30;;;;;;4930094;29;20796;-79
2021/04/24 03:49:08;;;;;;;13.10;7.17;;;5.10;97.40;;;;;;4930602;29;20481;-79
2021/04/24 03:51:36;;;;;;;10.90;7.90;;;5.10;97.40;;;;;;4930603;29;20458;-81
2021/04/24 03:54:04;;;;;;;12.30;7.97;;;5.10;97.50;;;;;;4932131;29;20450;-79
2021/04/24 03:56:34;;;;;;;12.80;8.20;;;5.20;97.60;;;;;;4937454;29;20477;-79
2021/04/24 03:59:02;;;;;;;14.30;9.20;;;5.10;97.60;;;;;;4932027;29;20474;-79
2021/04/24 04:01:29;;;;;;;10.20;7.23;;;5.20;97.70;;;;;;4936641;29;20455;-79
2021/04/24 04:03:56;;;;;;;10.77;7.30;;;5.20;97.70;;;;;;4937333;29;20445;-79
2021/04/24 04:06:23;;;;;;;12.73;7.67;;;5.20;97.80;;;;;;4938826;29;20978;-79
2021/04/24 04:08:51;;;;;;;12.80;8.90;;;5.20;97.90;;;;;;4936826;29;20560;-78
2021/04/24 04:11:19;;;;;;;12.73;7.97;;;5.10;97.80;;;;;;4937883;29;20842;-79
2021/04/24 04:13:48;;;;;;;13.43;8.70;;;5.20;98.00;;;;;;4929665;29;20434;-79
2021/04/24 04:16:16;;;;;;;12.90;7.80;;;5.20;98.00;;;;;;4929867;29;20496;-79
2021/04/24 04:18:44;;;;;;;10.47;7.27;;;5.20;98.00;;;;;;4930352;29;20869;-79
2021/04/24 04:21:12;;;;;;;12.43;7.77;;;5.20;98.10;;;;;;4927990;29;20453;-79
2021/04/24 04:23:40;;;;;;;13.47;8.17;;;5.20;98.10;;;;;;4930709;29;20448;-79
2021/04/24 04:26:08;;;;;;;11.33;8.10;;;5.20;98.20;;;;;;4928427;29;20454;-80
2021/04/24 04:28:35;;;;;;;14.93;9.00;;;5.20;98.20;;;;;;4928670;29;20466;-79
2021/04/24 04:31:02;;;;;;;12.67;8.83;;;5.20;98.30;;;;;;4929848;29;20897;-78
2021/04/24 04:33:30;;;;;;;11.63;7.27;;;5.20;98.30;;;;;;4931754;29;20475;-79
2021/04/24 04:36:02;;;;;;;11.97;7.83;;;5.10;98.30;;;;;;4927448;29;20560;-79
2021/04/24 04:38:30;;;;;;;10.67;6.90;;;5.10;98.40;;;;;;4946406;29;20466;-80
2021/04/24 04:40:57;;;;;;;10.40;7.40;;;5.20;98.50;;;;;;4947418;29;21050;-80
2021/04/24 04:43:25;;;;;;;14.13;8.70;;;5.20;98.50;;;;;;4947042;29;20494;-80
2021/04/24 04:45:53;;;;;;;10.37;7.70;;;5.20;98.60;;;;;;4946245;29;20457;-80
2021/04/24 04:48:20;;;;;;;11.97;7.60;;;5.20;98.70;;;;;;4945651;29;20473;-80
2021/04/24 04:50:48;;;;;;;12.00;7.93;;;5.20;98.70;;;;;;4928535;29;20833;-78
2021/04/24 04:53:15;;;;;;;15.97;9.40;;;5.20;98.80;;;;;;4917256;29;20505;-78
2021/04/24 04:56:03;;;;;;;14.70;8.30;;;5.20;98.80;;;;;;4928753;29;20469;-77
2021/04/24 04:58:30;;;;;;;9.87;6.83;;;5.30;99.00;;;;;;4936220;29;20468;-77
2021/04/24 05:00:58;;;;;;;11.20;7.53;;;5.30;99.30;;;;;;4936990;29;21009;-80
2021/04/24 05:03:25;;;;;;;13.60;8.20;;;5.30;99.10;;;;;;4947916;29;20464;-79
2021/04/24 05:05:52;;;;;;;12.07;7.93;;;5.40;99.30;;;;;;4948654;29;20476;-79
2021/04/24 05:08:19;;;;;;;12.45;8.90;;;5.40;99.30;;;;;;4944756;29;20453;-78
2021/04/24 05:10:46;;;;;;;12.20;7.60;;;5.50;99.70;;;;;;4947986;29;20228;-78
2021/04/24 05:13:13;;;;;;;10.90;8.20;;;5.50;99.70;;;;;;4930668;29;20474;-79
2021/04/24 05:15:41;;;;;;;12.10;9.63;;;5.50;99.70;;;;;;4926834;29;20510;-79
2021/04/24 05:18:08;;;;;;;11.80;7.77;;;5.60;99.80;;;;;;4926614;29;20452;-79
2021/04/24 05:20:36;;;;;;;11.80;8.93;;;5.60;99.90;;;;;;4942182;29;20801;-79
2021/04/24 05:23:03;;;;;;;13.33;8.20;;;5.60;99.90;;;;;;4942309;29;20453;-78
2021/04/24 05:25:31;;;;;;;12.30;8.30;;;5.70;99.90;;;;;;4940367;29;20513;-78
2021/04/24 05:27:58;;;;;;;12.60;7.27;;;5.80;99.90;;;;;;4927475;29;20513;-78
2021/04/24 05:30:25;;;;;;;9.03;6.77;;;5.80;99.90;;;;;;4924896;29;20486;-78
2021/04/24 05:32:54;;;;;;;11.30;7.30;;;5.90;99.90;;;;;;4926853;29;20458;-78
2021/04/24 05:35:21;;;;;;;11.13;8.53;;;5.90;99.90;;;;;;4942530;29;20457;-78
2021/04/24 05:37:49;;;;;;;9.40;6.93;;;6.00;99.90;;;;;;4929388;29;20447;-78
2021/04/24 05:40:16;;;;;;;12.47;7.83;;;6.10;99.90;;;;;;4925733;29;21021;-78
2021/04/24 05:42:44;;;;;;;8.87;6.70;;;6.10;99.90;;;;;;4934671;29;20446;-78
2021/04/24 05:45:14;;;;;;;13.63;7.73;;;6.10;99.90;;;;;;4947018;29;20516;-79
2021/04/24 05:47:43;;;;;;;10.77;7.33;;;6.20;99.90;;;;;;4948698;29;20446;-79
2021/04/24 05:50:13;;;;;;;11.07;6.87;;;6.30;99.90;;;;;;4947379;29;20516;-79
2021/04/24 05:52:40;;;;;;;12.47;8.63;;;6.30;99.90;;;;;;4949529;28;20951;-79
2021/04/24 05:55:09;;;;;;;10.27;8.17;;;6.30;99.90;;;;;;4942638;29;20497;-80
2021/04/24 05:57:37;;;;;;;10.47;7.47;;;6.40;99.90;;;;;;4947515;29;20458;-80
2021/04/24 06:00:06;;;;;;;15.00;7.67;;;6.40;99.90;;;;;;4950061;29;20834;-80
2021/04/24 06:02:35;;;;;;;10.97;6.50;;;6.60;99.90;;;;;;4947322;29;20462;-80
2021/04/24 06:05:03;;;;;;;10.33;6.93;;;6.70;99.90;;;;;;4931173;29;20534;-80
2021/04/24 06:07:31;;;;;;;13.13;7.37;;;6.70;99.90;;;;;;4936854;29;20485;-80
2021/04/24 06:09:59;;;;;;;10.97;8.27;;;6.80;99.90;;;;;;4931733;29;20535;-80
2021/04/24 06:12:26;;;;;;;13.30;7.67;;;6.90;99.90;;;;;;4937950;29;20460;-80
2021/04/24 06:14:55;;;;;;;8.60;6.10;;;6.90;99.90;;;;;;4950264;29;20463;-80
2021/04/24 06:17:22;;;;;;;10.80;7.23;;;7.00;99.90;;;;;;4950864;29;20444;-80
2021/04/24 06:22:56;;;;;;;10.10;6.60;;;7.40;99.90;;;;;;4902710;29;20469;-95
2021/04/24 06:25:47;;;;;;;11.70;6.77;;;7.50;99.90;;;;;;4904908;29;20430;-95
2021/04/24 06:28:25;;;;;;;10.53;6.33;;;7.80;99.90;;;;;;4903413;29;20470;-95
2021/04/24 06:31:30;;;;;;;9.43;5.97;;;8.10;99.90;;;;;;4903454;29;20465;-95
2021/04/24 06:34:17;;;;;;;;;;;;;;;;;;;;;
2021/04/24 06:37:39;;;;;;;13.30;6.50;;;8.60;99.90;;;;;;4906348;29;20470;-94
2021/04/24 06:44:25;;;;;;;6.80;4.97;;;9.10;99.70;;;;;;4873568;29;20470;-93
2021/04/24 06:47:12;;;;;;;7.10;5.07;;;9.40;99.60;;;;;;4899352;29;20462;-91
2021/04/24 06:50:16;;;;;;;7.37;4.70;;;9.60;99.40;;;;;;4904433;29;20493;-94
2021/04/24 06:53:01;;;;;;;9.07;4.90;;;9.80;99.20;;;;;;4905666;29;20871;-93
2021/04/24 06:55:57;;;;;;;6.97;4.53;;;9.90;98.70;;;;;;4905771;29;20443;-93
2021/04/24 06:58:27;;;;;;;8.67;4.93;;;10.10;98.00;;;;;;4906348;29;20466;-92
2021/04/24 07:01:02;;;;;;;7.67;4.70;;;10.20;97.70;;;;;;4905768;29;20458;-94
2021/04/24 07:03:35;;;;;;;11.47;5.43;;;10.30;97.30;;;;;;4905722;29;20522;-92
2021/04/24 07:06:07;;;;;;;8.25;4.95;;;10.40;96.90;;;;;;4905162;29;20452;-94
2021/04/24 07:08:46;;;;;;;11.37;5.20;;;10.50;96.20;;;;;;4905429;29;20195;-95
2021/04/24 07:11:24;;;;;;;10.93;5.00;;;10.60;96.20;;;;;;4905571;29;20466;-94
2021/04/24 07:14:16;;;;;;;6.60;3.50;;;10.70;96.10;;;;;;4905353;29;20465;-92
2021/04/24 07:17:52;;;;;;;8.82;4.30;;;10.80;96.00;;;;;;4904946;29;20446;-94
2021/04/24 07:20:41;;;;;;;7.83;4.30;;;11.00;94.70;;;;;;4905662;29;20197;-92
2021/04/24 07:26:40;;;;;;;7.07;3.97;;;11.00;94.70;;;;;;4994917;23;20506;-93
2021/04/24 07:32:34;;;;;;;12.27;4.70;;;11.20;94.80;;;;;;4962447;28;20475;-91
2021/04/24 07:35:12;;;;;;;5.83;3.80;;;11.30;94.60;;;;;;4962127;28;20436;-92
2021/04/24 07:38:18;;;;;;;7.17;4.00;;;11.50;94.60;;;;;;4962528;28;20468;-93
2021/04/24 07:40:52;;;;;;;12.10;5.03;;;11.60;94.20;;;;;;4961756;28;20442;-93
2021/04/24 07:43:35;;;;;;;8.03;4.20;;;11.60;93.80;;;;;;4961723;28;20479;-94
2021/04/24 07:46:13;;;;;;;8.03;4.63;;;11.60;94.00;;;;;;4961865;28;20463;-95
2021/04/24 07:48:42;;;;;;;8.67;4.07;;;11.60;94.20;;;;;;4961772;28;20476;-92
2021/04/24 07:51:34;;;;;;;7.90;4.20;;;11.80;94.30;;;;;;4961711;28;20463;-93
2021/04/24 07:54:09;;;;;;;6.03;3.70;;;11.90;93.90;;;;;;4961500;28;20436;-93
2021/04/24 07:56:50;;;;;;;11.47;4.47;;;11.70;93.70;;;;;;4961443;28;20428;-93
2021/04/24 08:03:30;;;;;;;4.87;3.97;;;12.00;93.50;;;;;;4959090;28;20463;-92
2021/04/24 08:06:23;;;;;;;5.97;3.90;;;12.10;93.60;;;;;;4961025;28;20456;-93
2021/04/24 08:12:08;;;;;;;;;;;;;;;;;;;;;
2021/04/24 08:19:28;;;;;;;7.00;3.60;;;12.80;93.10;;;;;;4959266;28;20534;-91
2021/04/24 08:22:38;;;;;;;;;;;;;;;;;;;;;
2021/04/24 08:28:06;;;;;;;8.60;3.20;;;12.80;92.50;;;;;;4977015;28;20460;-92
2021/04/24 08:30:38;;;;;;;5.00;3.10;;;12.90;92.50;;;;;;4961113;28;20439;-96
2021/04/24 08:33:09;;;;;;;7.57;3.37;;;12.80;92.10;;;;;;4960924;28;20428;-94
2021/04/24 08:35:44;;;;;;;4.40;2.87;;;12.80;91.80;;;;;;4961013;28;20432;-94
2021/04/24 08:54:16;;;;;;;6.30;3.25;;;13.10;90.90;;;;;;4938344;29;20442;-94
2021/04/24 08:57:19;;;;;;;5.40;2.67;;;13.20;89.80;;;;;;4922229;29;20276;-93
2021/04/24 09:00:18;;;;;;;6.63;3.40;;;13.00;90.00;;;;;;4936180;29;20447;-92
2021/04/24 09:03:03;;;;;;;9.37;3.00;;;13.10;89.90;;;;;;4941320;29;20442;-93
2021/04/24 09:06:21;;;;;;;7.30;3.53;;;13.20;89.40;;;;;;4941634;29;20457;-92
2021/04/24 09:09:14;;;;;;;9.93;3.23;;;13.20;88.60;;;;;;4933087;29;20477;-93
2021/04/24 09:12:17;;;;;;;9.33;3.10;;;13.30;88.30;;;;;;4957291;28;20469;-93
2021/04/24 09:15:02;;;;;;;;;;;;;;;;;;;;;
2021/04/24 09:18:18;;;;;;;;;;;;;;;;;;;;;
2021/04/24 09:21:40;;;;;;;6.47;2.60;;;13.50;87.70;;;;;;4941825;29;20436;-93
2021/04/24 09:28:03;;;;;;;6.43;2.70;;;14.00;86.90;;;;;;4942345;29;20528;-93
2021/04/24 09:30:45;;;;;;;5.17;2.00;;;13.90;85.30;;;;;;4945166;29;20488;-94
2021/04/24 09:37:21;;;;;;;5.20;2.10;;;13.40;83.60;;;;;;4939578;29;20450;-93
2021/04/24 09:39:57;;;;;;;8.10;3.87;;;13.20;83.70;;;;;;4945034;29;20423;-93
2021/04/24 09:43:08;;;;;;;5.83;2.27;;;13.10;82.80;;;;;;4960888;28;20423;-94
2021/04/24 09:49:40;;;;;;;3.37;1.93;;;13.30;83.20;;;;;;4924309;29;20465;-94
2021/04/24 09:52:33;;;;;;;2.63;2.17;;;13.40;81.60;;;;;;4944608;29;20451;-93
2021/04/24 09:55:15;;;;;;;4.43;2.30;;;13.30;81.30;;;;;;4944767;29;20438;-92
2021/04/24 09:58:27;;;;;;;2.80;2.10;;;13.30;81.20;;;;;;4953998;28;20419;-93
2021/04/24 10:01:44;;;;;;;3.87;1.47;;;13.40;80.30;;;;;;4945284;29;20429;-95
2021/04/24 10:08:11;;;;;;;6.90;1.73;;;13.60;79.10;;;;;;4940803;29;20428;-94
2021/04/24 10:11:07;;;;;;;6.40;2.50;;;13.70;77.30;;;;;;4944195;29;20497;-94
2021/04/24 10:14:42;;;;;;;2.87;1.77;;;13.70;77.40;;;;;;4925580;29;20441;-94
2021/04/24 10:18:15;;;;;;;5.53;2.10;;;13.90;77.60;;;;;;4944161;29;20447;-94
2021/04/24 10:21:08;;;;;;;4.63;1.73;;;14.10;74.60;;;;;;4944324;29;20177;-94
2021/04/24 10:23:48;;;;;;;7.03;1.77;;;14.00;75.00;;;;;;4960395;28;20461;-93
2021/04/24 10:26:55;;;;;;;4.68;2.30;;;13.90;74.90;;;;;;4959985;28;20445;-95
2021/04/24 10:35:52;;;;;;;;;;;;;;;;;;;;;
2021/04/24 10:38:34;;;;;;;3.63;1.70;;;13.70;73.80;;;;;;4943724;29;20435;-92
2021/04/24 10:45:07;;;;;;;4.70;1.50;;;13.60;73.70;;;;;;4959902;28;20435;-92
2021/04/24 10:47:53;;;;;;;2.80;1.60;;;13.60;73.30;;;;;;4943321;29;20464;-89
2021/04/24 10:51:07;;;;;;;3.27;1.90;;;13.60;73.10;;;;;;4959630;28;20428;-92
2021/04/24 10:54:08;;;;;;;2.33;1.50;;;13.50;73.10;;;;;;4887411;29;20427;-92
2021/04/24 10:57:33;;;;;;;3.80;1.83;;;13.50;73.50;;;;;;4944337;29;20444;-92
2021/04/24 11:01:21;;;;;;;5.23;1.33;;;13.50;73.00;;;;;;4920256;29;20434;-93
2021/04/24 11:11:06;;;;;;;4.43;1.87;;;13.30;71.70;;;;;;4943444;29;20453;-90
2021/04/24 11:13:37;;;;;;;2.30;1.23;;;13.20;71.60;;;;;;4959440;28;20408;-92
2021/04/24 11:16:08;;;;;;;2.50;1.50;;;13.20;71.30;;;;;;4943525;29;20461;-91
2021/04/24 11:18:37;;;;;;;4.33;1.77;;;13.20;71.00;;;;;;4943374;29;20471;-93
2021/04/24 11:21:10;;;;;;;3.70;2.30;;;13.20;71.00;;;;;;4959247;28;20441;-92
2021/04/24 11:23:58;;;;;;;3.13;1.80;;;13.30;71.10;;;;;;4943253;29;20503;-92
2021/04/24 11:26:50;;;;;;;3.40;1.80;;;13.40;70.60;;;;;;4959181;28;20492;-93
2021/04/24 11:29:35;;;;;;;3.50;1.47;;;13.40;70.70;;;;;;4943271;29;20441;-92
2021/04/24 11:32:10;;;;;;;3.03;1.30;;;13.50;70.10;;;;;;4958953;28;20457;-92
2021/04/24 12:04:33;;;;;;;3.67;1.50;;;13.30;65.30;;;;;;5112183;23;20468;-92
2021/04/24 12:07:30;;;;;;;2.13;1.13;;;13.30;65.30;;;;;;4965292;28;20463;-93
2021/04/24 12:10:24;;;;;;;1.67;1.20;;;13.30;64.50;;;;;;4950375;28;20432;-95
2021/04/24 12:18:59;;;;;;;2.50;1.37;;;13.00;64.70;;;;;;5369537;23;20569;-94
2021/04/24 16:41:53;;;;;;;2.60;1.30;;;11.90;62.10;;;;;;4942230;29;20541;-90
2021/04/24 16:54:05;;;;;;;4.67;1.40;;;12.30;63.60;;;;;;4865672;29;20463;-91
2021/04/24 16:57:29;;;;;;;2.17;1.10;;;12.60;63.50;;;;;;4938639;29;20467;-91
2021/04/24 17:00:56;;;;;;;2.33;1.40;;;12.70;63.30;;;;;;4895622;29;20463;-91
2021/04/24 17:03:57;;;;;;;2.13;1.47;;;12.90;64.00;;;;;;4938859;29;20429;-91
2021/04/24 17:06:28;;;;;;;3.40;1.80;;;13.40;64.30;;;;;;4937840;29;20959;-91
2021/04/24 17:09:40;;;;;;;4.90;1.90;;;13.70;64.20;;;;;;4941179;29;20517;-91
2021/04/24 17:12:09;;;;;;;2.63;1.30;;;14.10;63.40;;;;;;4937768;29;20446;-91
2021/04/24 17:14:36;;;;;;;1.90;1.30;;;14.30;63.30;;;;;;4937810;29;20465;-91
2021/04/24 17:17:06;;;;;;;3.50;1.80;;;14.80;63.90;;;;;;4937723;29;20454;-91
2021/04/24 17:19:37;;;;;;;2.57;1.20;;;15.30;64.10;;;;;;4937920;29;20418;-91
2021/04/24 17:22:14;;;;;;;3.80;1.40;;;16.00;63.10;;;;;;4937231;29;20422;-91
2021/04/24 17:24:45;;;;;;;4.23;1.40;;;16.90;62.40;;;;;;4937136;29;20484;-91
2021/04/24 17:27:17;;;;;;;3.30;1.60;;;17.70;61.10;;;;;;4937341;29;20526;-91
2021/04/24 17:29:45;;;;;;;4.97;1.83;;;18.40;59.90;;;;;;4938721;29;20547;-92
2021/04/24 17:32:16;;;;;;;2.73;1.33;;;19.00;59.60;;;;;;4937874;29;20476;-92
2021/04/24 17:34:46;;;;;;;5.50;1.57;;;19.60;57.60;;;;;;4938823;29;20448;-95
2021/04/24 17:37:14;;;;;;;5.63;1.60;;;20.10;56.80;;;;;;4940017;29;20483;-94
2021/04/24 17:40:13;;;;;;;4.10;1.47;;;20.30;56.00;;;;;;4942676;29;20968;-94
2021/04/24 17:42:43;;;;;;;4.53;2.17;;;20.30;55.30;;;;;;4940368;29;20462;-94
2021/04/24 17:45:15;;;;;;;4.63;1.90;;;19.70;55.00;;;;;;4939205;29;20520;-94
2021/04/24 17:47:46;;;;;;;5.23;2.03;;;18.60;56.00;;;;;;4937884;29;20555;-91
2021/04/24 17:50:22;;;;;;;6.63;2.40;;;17.80;56.40;;;;;;4941881;29;20547;-91
2021/04/24 17:52:52;;;;;;;3.77;2.03;;;16.50;56.90;;;;;;4941850;29;20483;-90
2021/04/24 17:55:43;;;;;;;5.10;2.70;;;15.40;57.80;;;;;;4942501;29;20519;-90
2021/04/24 17:58:14;;;;;;;7.40;2.50;;;14.50;58.70;;;;;;4941411;29;20888;-90
2021/04/24 18:00:44;;;;;;;6.50;2.40;;;13.80;59.40;;;;;;4941533;29;20460;-90
2021/04/24 18:03:13;;;;;;;4.43;2.30;;;13.30;59.90;;;;;;4941586;29;20438;-90
2021/04/24 18:05:43;;;;;;;4.90;2.70;;;12.80;60.40;;;;;;4941782;29;20872;-90
2021/04/24 18:08:15;;;;;;;6.73;2.90;;;12.50;61.10;;;;;;4941883;29;20511;-90
2021/04/24 18:10:43;;;;;;;6.28;2.92;;;12.10;61.60;;;;;;4941206;29;20500;-90
2021/04/24 18:13:11;;;;;;;4.87;2.60;;;12.00;63.00;;;;;;4941453;29;20452;-90
2021/04/24 18:15:39;;;;;;;6.27;2.43;;;11.80;63.10;;;;;;4941871;29;20451;-90
2021/04/24 18:18:07;;;;;;;4.47;2.80;;;11.60;63.40;;;;;;4941261;29;20482;-90
2021/04/24 18:20:36;;;;;;;5.53;2.70;;;11.30;63.70;;;;;;4941402;29;20466;-90
2021/04/24 18:23:05;;;;;;;7.90;2.70;;;11.00;64.00;;;;;;4941089;29;20499;-90
2021/04/24 18:25:32;;;;;;;4.27;2.97;;;10.80;64.30;;;;;;4940679;29;20849;-90
2021/04/24 18:28:00;;;;;;;3.70;2.60;;;10.70;64.70;;;;;;4941258;29;20481;-90
2021/04/24 18:30:28;;;;;;;5.60;3.00;;;10.60;65.00;;;;;;4941311;29;20538;-90
2021/04/24 18:32:55;;;;;;;3.80;2.70;;;10.40;65.40;;;;;;4940805;29;20472;-90
2021/04/24 18:35:22;;;;;;;5.63;3.30;;;10.20;65.70;;;;;;4941448;29;20490;-90
2021/04/24 18:37:51;;;;;;;4.60;2.80;;;10.10;65.90;;;;;;4940992;29;20813;-90
2021/04/24 18:40:25;;;;;;;7.20;3.93;;;10.00;66.50;;;;;;4941359;29;20483;-90
2021/04/24 18:42:53;;;;;;;6.73;4.60;;;9.80;67.90;;;;;;4941554;29;20444;-90
2021/04/24 18:45:21;;;;;;;5.10;4.00;;;9.60;69.00;;;;;;4942246;29;20900;-90
2021/04/24 18:47:49;;;;;;;7.33;5.53;;;9.40;68.80;;;;;;4941463;29;20476;-90
2021/04/24 18:50:18;;;;;;;9.93;5.43;;;9.30;70.00;;;;;;4941839;29;20507;-90
2021/04/24 18:52:46;;;;;;;6.20;4.07;;;9.20;69.80;;;;;;4951191;29;20471;-90
2021/04/24 18:55:16;;;;;;;5.17;4.23;;;9.10;70.40;;;;;;4962333;28;20447;-90
2021/04/24 18:57:44;;;;;;;5.00;4.13;;;9.00;70.90;;;;;;4962371;28;20456;-90
2021/04/24 19:00:15;;;;;;;7.73;5.13;;;8.90;71.20;;;;;;4958765;28;20483;-90
2021/04/24 19:02:46;;;;;;;7.10;4.50;;;8.80;71.70;;;;;;4953958;29;20451;-90
2021/04/24 19:05:15;;;;;;;6.57;4.87;;;8.80;72.30;;;;;;4941648;29;20520;-90
2021/04/24 19:07:42;;;;;;;6.33;4.10;;;8.70;72.40;;;;;;4941064;29;20488;-90
2021/04/24 19:12:54;;;;;;;6.87;4.20;;;8.60;73.00;;;;;;4939181;29;21027;-90
2021/04/24 19:15:22;;;;;;;8.70;4.20;;;8.50;73.30;;;;;;4940466;29;21074;-90
2021/04/24 19:17:49;;;;;;;6.77;5.13;;;8.40;73.40;;;;;;4939907;29;20562;-90
2021/04/24 19:20:16;;;;;;;7.70;4.40;;;8.40;73.70;;;;;;4939846;29;20466;-90
2021/04/24 19:22:43;;;;;;;7.87;5.37;;;8.30;73.80;;;;;;4940460;29;20452;-91
2021/04/24 19:25:13;;;;;;;8.57;6.70;;;8.30;74.00;;;;;;4940705;29;20463;-90
2021/04/24 19:27:40;;;;;;;8.87;4.20;;;8.20;74.10;;;;;;4940230;29;20482;-90
2021/04/24 19:30:13;;;;;;;10.17;4.50;;;8.20;74.40;;;;;;4940948;29;20521;-91
2021/04/24 19:32:40;;;;;;;6.73;5.17;;;8.10;74.50;;;;;;4940587;29;20525;-90
2021/04/24 19:35:17;;;;;;;8.27;5.30;;;8.00;74.60;;;;;;4940967;29;20457;-90
2021/04/24 19:37:46;;;;;;;7.00;4.93;;;8.00;75.00;;;;;;4939690;29;20457;-93
2021/04/24 19:40:15;;;;;;;6.97;4.40;;;8.00;76.90;;;;;;4940275;29;20214;-90
2021/04/24 19:42:43;;;;;;;6.47;4.00;;;8.00;76.40;;;;;;4940481;29;20461;-90
2021/04/24 19:45:14;;;;;;;5.00;4.10;;;7.80;76.20;;;;;;4940331;29;20486;-90
2021/04/24 19:47:42;;;;;;;9.10;5.23;;;7.80;76.40;;;;;;4939635;29;21034;-90
2021/04/24 19:51:28;;;;;;;6.37;4.43;;;7.70;76.40;;;;;;4943242;29;20454;-92
2021/04/24 20:03:08;;;;;;;7.47;4.27;;;7.40;76.70;;;;;;4810326;29;20508;-92
2021/04/24 20:06:46;;;;;;;6.17;3.63;;;7.30;76.70;;;;;;4871190;29;20460;-91
2021/04/24 20:14:01;;;;;;;7.87;4.27;;;7.20;77.10;;;;;;4943599;29;20449;-93
2021/04/24 20:39:05;;;;;;;6.50;5.10;;;6.80;77.90;;;;;;4690763;30;20476;-91
2021/04/24 21:08:04;;;;;;;5.00;4.03;;;6.40;78.60;;;;;;4701713;30;20481;-92